Time;durP1;ratioP1;P1;durP2;ratioP2;P2;SDS_P1;SDS_P2;PMS_P1;PMS_P2;Temp;Humidity;BMP_temperature;BMP_pressure;BME280_temperature;BME280_humidity;BME280_pressure;Samples;Min_cycle;Max_cycle;Signal;HPM_P1;HPM_P2
2021/05/03 00:02:06;;;;;;;0.72;0.60;;;;;;;15.16;72.93;97264.41;1744179;82;21163;-68
2021/05/03 00:04:34;;;;;;;1.62;0.72;;;;;;;15.16;73.71;97260.48;1744351;82;21199;-67
2021/05/03 00:07:02;;;;;;;1.00;0.70;;;;;;;15.10;74.19;97248.14;1744201;82;21131;-67
2021/05/03 00:09:30;;;;;;;1.37;0.47;;;;;;;15.03;75.38;97243.36;1744315;81;21627;-65
2021/05/03 00:11:58;;;;;;;1.15;0.60;;;;;;;14.96;75.19;97249.03;1744102;81;21154;-64
2021/05/03 00:14:29;;;;;;;0.68;0.60;;;;;;;14.88;74.61;97251.77;1744197;81;21667;-66
2021/05/03 00:16:58;;;;;;;1.35;0.50;;;;;;;14.80;74.67;97246.66;1744240;81;21198;-65
2021/05/03 00:19:26;;;;;;;0.72;0.40;;;;;;;14.79;74.46;97253.38;1744299;82;21592;-65
2021/05/03 00:21:54;;;;;;;2.50;0.50;;;;;;;14.77;73.21;97254.07;1744172;81;21218;-65
2021/05/03 00:24:22;;;;;;;2.70;0.53;;;;;;;14.68;72.39;97250.27;1744071;81;21166;-65
2021/05/03 00:26:50;;;;;;;0.82;0.65;;;;;;;14.74;71.57;97270.94;1744231;81;21186;-65
2021/05/03 00:29:18;;;;;;;1.42;0.47;;;;;;;14.72;71.17;97274.22;1744143;81;21580;-65
2021/05/03 00:31:46;;;;;;;1.35;0.50;;;;;;;14.73;70.33;97279.28;1744323;81;21632;-65
2021/05/03 00:34:15;;;;;;;0.53;0.33;;;;;;;14.75;70.58;97280.91;1744475;81;21593;-65
2021/05/03 00:36:42;;;;;;;0.90;0.30;;;;;;;14.72;69.97;97280.27;1744478;81;21196;-65
2021/05/03 00:39:11;;;;;;;2.55;0.50;;;;;;;14.70;69.10;97279.66;1744551;81;21160;-65
2021/05/03 00:41:39;;;;;;;0.30;0.30;;;;;;;14.68;68.67;97287.34;1744406;81;21635;-65
2021/05/03 00:44:07;;;;;;;1.87;0.33;;;;;;;14.65;67.11;97296.38;1744291;81;21150;-65
2021/05/03 00:46:34;;;;;;;1.80;0.40;;;;;;;14.58;66.43;97295.98;1744490;81;21162;-65
2021/05/03 00:51:42;;;;;;;0.72;0.42;;;;;;;14.33;66.41;97303.78;1684978;85;21139;-65
2021/05/03 00:54:32;;;;;;;0.30;0.30;;;;;;;14.17;66.62;97299.55;1684825;85;21245;-65
2021/05/03 00:57:00;;;;;;;2.47;0.30;;;;;;;14.06;66.54;97299.52;1622078;88;21163;-64
2021/05/03 00:59:28;;;;;;;0.55;0.50;;;;;;;13.95;66.75;97305.69;1625588;87;21255;-64
2021/05/03 01:01:57;;;;;;;0.60;0.20;;;;;;;13.82;66.73;97305.48;1625763;87;21210;-64
2021/05/03 01:04:25;;;;;;;0.65;0.47;;;;;;;13.74;66.70;97305.08;1625645;87;21198;-64
2021/05/03 01:06:53;;;;;;;0.85;0.53;;;;;;;13.64;66.57;97308.45;1625823;88;21627;-63
2021/05/03 01:09:21;;;;;;;1.95;0.30;;;;;;;13.56;66.43;97308.03;1625725;88;21191;-64
2021/05/03 01:11:49;;;;;;;0.90;0.42;;;;;;;13.49;66.34;97321.47;1625836;88;21194;-67
2021/05/03 01:14:17;;;;;;;0.62;0.40;;;;;;;13.41;66.40;97322.02;1625806;87;21643;-65
2021/05/03 01:16:45;;;;;;;0.30;0.25;;;;;;;13.33;66.23;97326.00;1625621;87;21619;-64
2021/05/03 01:19:18;;;;;;;0.60;0.37;;;;;;;13.25;66.30;97325.56;1625832;87;21223;-67
2021/05/03 01:21:43;;;;;;;0.65;0.20;;;;;;;13.15;66.04;97331.52;1625444;88;21253;-68
2021/05/03 01:24:11;;;;;;;0.35;0.20;;;;;;;13.03;65.87;97332.39;1625669;87;21214;-67
2021/05/03 01:26:40;;;;;;;0.88;0.40;;;;;;;12.92;65.78;97341.87;1626044;88;21234;-68
2021/05/03 01:29:08;;;;;;;0.40;0.40;;;;;;;12.80;65.73;97337.55;1625898;88;21206;-68
2021/05/03 01:31:38;;;;;;;0.23;0.23;;;;;;;12.70;65.70;97349.99;1625759;87;21239;-67
2021/05/03 01:34:09;;;;;;;0.57;0.25;;;;;;;12.58;65.29;97352.66;1625770;88;21203;-67
2021/05/03 01:36:42;;;;;;;1.02;0.40;;;;;;;12.47;65.45;97358.23;1625767;88;21198;-67
2021/05/03 01:39:14;;;;;;;0.60;0.20;;;;;;;12.37;65.48;97368.05;1600848;88;21220;-66
2021/05/03 01:41:43;;;;;;;3.77;0.37;;;;;;;12.24;65.21;97366.45;1625776;87;21194;-65
2021/05/03 01:44:13;;;;;;;0.37;0.30;;;;;;;12.13;65.15;97372.02;1625674;87;21194;-65
2021/05/03 01:46:41;;;;;;;0.53;0.30;;;;;;;12.03;64.91;97366.17;1625829;87;21206;-65
2021/05/03 01:49:09;;;;;;;0.65;0.33;;;;;;;11.90;64.64;97371.39;1625695;88;21194;-66
2021/05/03 01:51:39;;;;;;;0.37;0.23;;;;;;;11.78;64.71;97376.64;1625864;88;21198;-64
2021/05/03 01:54:07;;;;;;;0.60;0.35;;;;;;;11.67;64.81;97382.12;1625829;88;21179;-65
2021/05/03 01:56:36;;;;;;;0.35;0.28;;;;;;;11.55;64.48;97398.23;1643991;86;21219;-65
2021/05/03 01:59:07;;;;;;;0.60;0.33;;;;;;;11.40;64.69;97398.86;1626426;87;21191;-65
2021/05/03 02:01:40;;;;;;;0.37;0.20;;;;;;;11.25;64.56;97410.05;1626288;87;21195;-66
2021/05/03 02:04:28;;;;;;;0.30;0.30;;;;;;;11.13;64.67;97417.81;1649096;87;21652;-66
2021/05/03 02:06:56;;;;;;;1.10;0.40;;;;;;;11.00;64.78;97414.88;1630392;88;21214;-65
2021/05/03 02:09:23;;;;;;;0.20;0.20;;;;;;;10.87;65.08;97424.41;1630244;88;21196;-65
2021/05/03 02:11:51;;;;;;;0.50;0.28;;;;;;;10.78;65.01;97427.94;1630302;87;21209;-65
2021/05/03 02:14:19;;;;;;;0.20;0.20;;;;;;;10.63;65.10;97429.51;1630341;88;21201;-67
2021/05/03 02:16:48;;;;;;;0.20;0.20;;;;;;;10.54;65.25;97431.76;1604028;89;21167;-67
2021/05/03 02:19:16;;;;;;;0.53;0.30;;;;;;;10.41;65.43;97436.06;1603949;89;21198;-67
2021/05/03 02:21:44;;;;;;;0.30;0.30;;;;;;;10.30;65.78;97449.31;1604017;88;21290;-67
2021/05/03 02:24:12;;;;;;;0.30;0.30;;;;;;;10.22;65.43;97459.16;1630543;88;21172;-67
2021/05/03 02:26:40;;;;;;;0.75;0.55;;;;;;;10.12;65.31;97461.47;1630301;88;21244;-67
2021/05/03 02:29:09;;;;;;;0.35;0.13;;;;;;;10.03;65.53;97471.47;1630217;88;21621;-67
2021/05/03 02:31:37;;;;;;;1.75;0.30;;;;;;;9.93;65.57;97478.85;1630175;88;21273;-65
2021/05/03 02:34:05;;;;;;;0.40;0.30;;;;;;;9.86;65.48;97475.71;1630241;88;21192;-65
2021/05/03 02:36:33;;;;;;;0.33;0.33;;;;;;;9.78;65.56;97477.76;1630317;87;21244;-65
2021/05/03 02:39:03;;;;;;;0.50;0.50;;;;;;;9.71;66.10;97480.62;1630631;88;21193;-65
2021/05/03 02:41:33;;;;;;;0.50;0.40;;;;;;;9.64;66.06;97486.07;1630284;88;21233;-67
2021/05/03 02:44:01;;;;;;;0.72;0.35;;;;;;;9.61;65.89;97488.15;1630375;88;21269;-67
2021/05/03 02:46:29;;;;;;;0.57;0.40;;;;;;;9.54;66.00;97501.68;1630355;87;21188;-67
2021/05/03 02:48:58;;;;;;;1.37;0.45;;;;;;;9.49;66.19;97501.80;1630236;87;21232;-65
2021/05/03 02:51:27;;;;;;;0.60;0.40;;;;;;;9.44;66.48;97507.90;1630268;88;21165;-65
2021/05/03 02:53:55;;;;;;;0.62;0.40;;;;;;;9.39;66.55;97503.15;1630199;87;21229;-65
2021/05/03 02:56:23;;;;;;;0.50;0.30;;;;;;;9.34;66.15;97509.24;1630278;88;21201;-65
2021/05/03 02:58:51;;;;;;;0.40;0.40;;;;;;;9.30;66.25;97520.86;1630177;88;21221;-64
2021/05/03 03:01:19;;;;;;;0.30;0.30;;;;;;;9.26;66.18;97521.32;1630406;88;21196;-64
2021/05/03 03:03:47;;;;;;;0.40;0.40;;;;;;;9.19;66.61;97521.06;1630181;88;21232;-64
2021/05/03 03:06:15;;;;;;;0.53;0.50;;;;;;;9.15;66.73;97531.85;1629087;88;21303;-65
2021/05/03 03:08:43;;;;;;;0.72;0.53;;;;;;;9.10;67.03;97535.38;1628629;88;21237;-65
2021/05/03 03:11:11;;;;;;;0.60;0.50;;;;;;;9.05;66.59;97541.80;1628767;88;21185;-65
2021/05/03 03:13:39;;;;;;;2.77;0.50;;;;;;;9.02;66.83;97548.56;1628597;88;21167;-65
2021/05/03 03:16:07;;;;;;;1.60;0.50;;;;;;;9.00;66.55;97548.35;1628858;88;21197;-64
2021/05/03 03:18:35;;;;;;;0.65;0.53;;;;;;;8.97;67.03;97556.41;1628734;88;21614;-65
2021/05/03 03:21:08;;;;;;;0.78;0.57;;;;;;;8.96;67.17;97561.25;1628652;88;21606;-65
2021/05/03 03:23:36;;;;;;;1.12;0.55;;;;;;;8.92;67.98;97566.38;1628605;88;21181;-68
2021/05/03 03:26:04;;;;;;;0.82;0.33;;;;;;;8.91;66.78;97573.83;1628594;88;21610;-68
2021/05/03 03:28:31;;;;;;;0.40;0.40;;;;;;;8.87;67.40;97577.15;1628788;88;21577;-66
2021/05/03 03:31:00;;;;;;;0.47;0.45;;;;;;;8.85;67.32;97584.26;1628620;88;21203;-66
2021/05/03 03:33:28;;;;;;;0.42;0.37;;;;;;;8.85;66.86;97596.38;1628678;88;21161;-66
2021/05/03 03:35:58;;;;;;;0.95;0.53;;;;;;;8.83;67.53;97600.39;1628565;88;21209;-66
2021/05/03 03:38:26;;;;;;;0.72;0.55;;;;;;;8.82;66.85;97594.91;1628899;88;21643;-66
2021/05/03 03:40:54;;;;;;;1.65;0.80;;;;;;;8.80;67.60;97600.69;1628585;88;21189;-66
2021/05/03 03:43:22;;;;;;;1.15;0.55;;;;;;;8.82;66.72;97611.73;1628773;88;21648;-67
2021/05/03 03:45:50;;;;;;;0.30;0.30;;;;;;;8.81;66.79;97607.98;1628559;88;21173;-66
2021/05/03 03:48:18;;;;;;;0.37;0.37;;;;;;;8.82;66.59;97615.62;1628516;88;21280;-65
2021/05/03 03:50:46;;;;;;;0.33;0.33;;;;;;;8.84;66.91;97619.34;1628638;88;21640;-67
2021/05/03 03:53:14;;;;;;;0.55;0.50;;;;;;;8.87;66.78;97624.27;1628596;88;21245;-67
2021/05/03 03:55:43;;;;;;;0.62;0.40;;;;;;;8.90;67.26;97627.39;1628803;88;21173;-66
2021/05/03 03:58:11;;;;;;;0.53;0.50;;;;;;;8.94;67.19;97640.39;1628639;88;21233;-67
2021/05/03 04:00:39;;;;;;;0.85;0.70;;;;;;;8.97;67.05;97645.29;1628735;88;21196;-68
2021/05/03 04:03:09;;;;;;;1.45;1.20;;;;;;;9.02;66.89;97650.88;1628609;88;21630;-68
2021/05/03 04:08:21;;;;;;;1.05;0.70;;;;;;;9.11;66.70;97663.44;1629813;87;21292;-65
2021/05/03 04:13:39;;;;;;;0.93;0.53;;;;;;;9.22;66.56;97661.17;1630037;88;21204;-66
2021/05/03 04:27:13;;;;;;;0.82;0.65;;;;;;;9.41;66.08;97655.92;1654029;87;21249;-66
2021/05/03 04:29:42;;;;;;;0.78;0.78;;;;;;;9.46;66.10;97654.99;1654194;87;21757;-66
2021/05/03 04:32:10;;;;;;;0.90;0.70;;;;;;;9.50;65.98;97655.04;1654142;87;21826;-68
2021/05/03 04:34:38;;;;;;;0.50;0.50;;;;;;;9.54;65.59;97659.80;1657010;86;21197;-68
2021/05/03 04:37:06;;;;;;;0.88;0.62;;;;;;;9.58;65.87;97662.92;1653938;87;21138;-68
2021/05/03 04:39:36;;;;;;;0.35;0.33;;;;;;;9.60;65.66;97663.61;1654033;87;21154;-68
2021/05/03 04:42:05;;;;;;;0.50;0.30;;;;;;;9.66;65.70;97672.57;1654128;86;21351;-66
2021/05/03 04:44:32;;;;;;;0.40;0.40;;;;;;;9.69;65.71;97668.42;1656783;86;21194;-66
2021/05/03 04:47:01;;;;;;;0.42;0.42;;;;;;;9.72;65.46;97674.13;1654038;85;21602;-66
2021/05/03 04:49:29;;;;;;;0.72;0.60;;;;;;;9.77;65.58;97674.49;1654136;86;21689;-66
2021/05/03 04:51:57;;;;;;;0.33;0.33;;;;;;;9.82;65.40;97683.96;1656883;86;21146;-66
2021/05/03 04:54:25;;;;;;;0.45;0.45;;;;;;;9.86;65.08;97681.41;1626127;87;21634;-65
2021/05/03 04:56:53;;;;;;;0.90;0.53;;;;;;;9.91;65.14;97682.28;1656912;86;21169;-65
2021/05/03 04:59:22;;;;;;;0.30;0.30;;;;;;;9.94;65.11;97681.98;1625938;88;21187;-66
2021/05/03 05:01:50;;;;;;;0.60;0.60;;;;;;;9.99;64.88;97684.97;1656910;86;21142;-66
2021/05/03 05:04:19;;;;;;;1.80;0.78;;;;;;;10.02;64.63;97688.56;1626149;87;21250;-69
2021/05/03 05:06:46;;;;;;;0.60;0.50;;;;;;;10.08;64.76;97687.17;1656868;85;21194;-68
2021/05/03 05:09:15;;;;;;;1.02;0.60;;;;;;;10.12;64.33;97678.11;1626418;87;21198;-68
2021/05/03 05:11:43;;;;;;;1.35;0.90;;;;;;;10.17;64.69;97678.52;1657081;86;21185;-68
2021/05/03 05:14:12;;;;;;;0.60;0.53;;;;;;;10.24;64.18;97686.05;1626022;87;21226;-69
2021/05/03 05:16:41;;;;;;;0.40;0.40;;;;;;;10.30;63.99;97681.59;1656844;85;21577;-68
2021/05/03 05:19:09;;;;;;;0.82;0.65;;;;;;;10.35;63.92;97680.67;1626149;88;21198;-68
2021/05/03 05:21:37;;;;;;;0.50;0.50;;;;;;;10.40;63.83;97675.83;1656925;85;21598;-68
2021/05/03 05:26:47;;;;;;;0.65;0.55;;;;;;;10.48;63.13;97679.32;1727872;83;21342;-67
2021/05/03 05:29:15;;;;;;;0.93;0.57;;;;;;;10.52;62.62;97681.61;1727811;82;21290;-64
2021/05/03 05:31:43;;;;;;;0.40;0.40;;;;;;;10.56;62.84;97691.55;1727891;82;21330;-67
2021/05/03 05:34:10;;;;;;;0.55;0.40;;;;;;;10.59;62.66;97698.22;1727747;83;21180;-65
2021/05/03 05:36:39;;;;;;;0.62;0.40;;;;;;;10.61;62.61;97697.13;1727908;82;21169;-65
2021/05/03 05:39:09;;;;;;;0.90;0.50;;;;;;;10.68;62.82;97701.23;1728172;83;21137;-65
2021/05/03 05:41:39;;;;;;;1.30;0.65;;;;;;;10.71;61.86;97700.45;1727757;82;21160;-64
2021/05/03 05:44:07;;;;;;;0.93;0.50;;;;;;;10.80;62.35;97709.13;1727822;83;21163;-64
2021/05/03 05:46:36;;;;;;;0.60;0.50;;;;;;;10.82;62.09;97704.59;1727991;83;21307;-64
2021/05/03 05:49:05;;;;;;;0.57;0.40;;;;;;;10.86;62.14;97711.93;1727859;83;21659;-65
2021/05/03 05:51:33;;;;;;;0.57;0.55;;;;;;;10.94;62.16;97715.89;1727904;83;21180;-64
2021/05/03 05:54:01;;;;;;;0.50;0.40;;;;;;;11.09;62.13;97711.47;1727762;83;21156;-65
2021/05/03 05:56:29;;;;;;;1.22;0.60;;;;;;;11.23;61.82;97716.92;1727905;83;21299;-67
2021/05/03 05:58:57;;;;;;;0.80;0.68;;;;;;;11.39;61.27;97714.91;1727768;83;21159;-67
2021/05/03 06:01:26;;;;;;;0.72;0.53;;;;;;;11.50;60.75;97715.95;1727719;83;21137;-67
2021/05/03 06:03:55;;;;;;;0.88;0.60;;;;;;;11.61;60.77;97716.97;1727806;83;21588;-69
2021/05/03 06:06:23;;;;;;;1.70;0.70;;;;;;;11.73;60.43;97717.55;1727883;83;21715;-66
2021/05/03 06:08:51;;;;;;;0.85;0.70;;;;;;;11.86;59.43;97719.25;1727778;83;21290;-67
2021/05/03 06:11:19;;;;;;;0.60;0.40;;;;;;;12.00;60.11;97713.92;1727731;83;21252;-67
2021/05/03 06:13:47;;;;;;;0.82;0.50;;;;;;;12.06;59.89;97727.62;1727737;83;21160;-66
2021/05/03 06:16:15;;;;;;;0.90;0.60;;;;;;;12.12;59.38;97725.19;1727800;83;21484;-67
2021/05/03 06:18:43;;;;;;;3.72;0.40;;;;;;;12.18;58.87;97727.63;1727983;83;21703;-67
2021/05/03 06:21:11;;;;;;;0.35;0.28;;;;;;;12.19;58.49;97720.98;1727611;83;21211;-67
2021/05/03 06:23:39;;;;;;;0.60;0.45;;;;;;;12.24;59.18;97727.02;1727692;83;21148;-66
2021/05/03 06:26:07;;;;;;;0.93;0.50;;;;;;;12.27;58.66;97727.99;1726300;82;21609;-64
2021/05/03 06:28:36;;;;;;;0.88;0.70;;;;;;;12.36;59.13;97729.66;1725859;83;21152;-65
2021/05/03 06:31:04;;;;;;;0.35;0.30;;;;;;;12.41;58.96;97726.58;1725738;83;21156;-65
2021/05/03 06:33:32;;;;;;;0.42;0.42;;;;;;;12.45;57.22;97723.47;1725820;83;21163;-65
2021/05/03 06:36:01;;;;;;;0.80;0.53;;;;;;;12.59;58.37;97716.34;1725603;83;21160;-67
2021/05/03 06:38:29;;;;;;;0.40;0.40;;;;;;;12.69;56.75;97724.81;1725817;83;21181;-66
2021/05/03 06:40:56;;;;;;;0.42;0.40;;;;;;;12.75;57.14;97724.19;1725706;83;21590;-69
2021/05/03 06:43:25;;;;;;;0.40;0.40;;;;;;;12.93;56.44;97719.28;1726007;83;21121;-69
2021/05/03 06:45:56;;;;;;;0.70;0.60;;;;;;;13.16;54.22;97725.01;1725582;83;21133;-68
2021/05/03 06:48:24;;;;;;;1.20;0.65;;;;;;;13.38;53.73;97719.63;1725740;83;21180;-69
2021/05/03 06:50:52;;;;;;;1.05;0.60;;;;;;;13.35;52.62;97721.72;1725700;83;21160;-67
2021/05/03 06:53:20;;;;;;;0.65;0.60;;;;;;;13.53;54.85;97721.86;1725797;83;21601;-67
2021/05/03 06:55:48;;;;;;;0.60;0.40;;;;;;;13.59;53.80;97723.80;1725621;83;21165;-67
2021/05/03 06:58:16;;;;;;;0.72;0.60;;;;;;;13.68;55.02;97734.54;1725788;83;21624;-67
2021/05/03 07:00:44;;;;;;;0.57;0.50;;;;;;;13.65;53.09;97732.27;1725625;83;21141;-68
2021/05/03 07:03:13;;;;;;;1.20;0.68;;;;;;;13.60;51.69;97728.04;1725816;83;21199;-67
2021/05/03 07:05:41;;;;;;;0.70;0.60;;;;;;;13.64;51.63;97723.30;1725593;83;21156;-67
2021/05/03 07:08:11;;;;;;;0.93;0.60;;;;;;;13.64;50.68;97728.52;1725834;83;21160;-69
2021/05/03 07:10:43;;;;;;;1.00;0.70;;;;;;;13.78;51.72;97713.45;1725785;83;21645;-69
2021/05/03 07:13:09;;;;;;;0.42;0.35;;;;;;;13.76;51.23;97714.13;1725496;83;21172;-67
2021/05/03 07:15:37;;;;;;;0.80;0.47;;;;;;;13.93;53.06;97713.58;1725563;83;21197;-67
2021/05/03 07:18:06;;;;;;;0.60;0.60;;;;;;;14.02;50.98;97722.50;1725665;83;21215;-69
2021/05/03 07:20:34;;;;;;;0.50;0.50;;;;;;;14.11;50.04;97716.76;1725738;82;21160;-68
2021/05/03 07:23:07;;;;;;;0.60;0.60;;;;;;;14.28;51.21;97715.18;1725808;83;21164;-69
2021/05/03 07:25:36;;;;;;;0.70;0.60;;;;;;;14.37;47.66;97726.44;1725665;83;21574;-68
2021/05/03 07:28:05;;;;;;;0.50;0.50;;;;;;;14.51;49.23;97719.16;1725929;83;21156;-68
2021/05/03 07:30:33;;;;;;;0.60;0.60;;;;;;;14.63;50.19;97713.03;1725755;83;21232;-69
2021/05/03 07:33:02;;;;;;;1.02;0.62;;;;;;;14.77;49.33;97707.56;1725746;83;21577;-68
2021/05/03 07:35:30;;;;;;;1.12;0.72;;;;;;;14.84;47.63;97717.63;1725735;83;21204;-68
2021/05/03 07:37:58;;;;;;;1.07;0.68;;;;;;;14.76;45.36;97749.05;1725671;83;21586;-68
2021/05/03 07:40:26;;;;;;;0.60;0.60;;;;;;;14.87;47.83;97731.16;1725876;83;21177;-68
2021/05/03 07:42:54;;;;;;;0.88;0.60;;;;;;;14.96;47.98;97727.50;1725963;83;21136;-69
2021/05/03 07:45:23;;;;;;;0.95;0.40;;;;;;;14.97;47.07;97715.25;1725868;83;21169;-68
2021/05/03 07:47:53;;;;;;;0.85;0.50;;;;;;;14.94;45.83;97729.98;1725845;83;21537;-68
2021/05/03 07:50:21;;;;;;;0.62;0.42;;;;;;;15.00;48.24;97724.86;1725783;83;21133;-68
2021/05/03 07:52:50;;;;;;;0.80;0.53;;;;;;;14.99;46.42;97716.69;1725991;83;21349;-68
2021/05/03 07:55:18;;;;;;;0.75;0.50;;;;;;;14.98;46.60;97720.80;1725683;83;21184;-68
2021/05/03 07:57:46;;;;;;;0.50;0.50;;;;;;;14.91;44.61;97730.31;1726063;83;21612;-68
2021/05/03 08:00:15;;;;;;;0.65;0.40;;;;;;;15.04;46.82;97729.24;1725972;83;21586;-68
2021/05/03 08:02:43;;;;;;;0.57;0.35;;;;;;;15.08;45.72;97728.72;1725832;83;21192;-68
2021/05/03 08:05:12;;;;;;;0.30;0.30;;;;;;;15.09;43.00;97732.97;1726140;83;21171;-68
2021/05/03 08:07:40;;;;;;;0.50;0.30;;;;;;;15.11;44.48;97729.67;1725787;83;21617;-69
2021/05/03 08:10:31;;;;;;;0.30;0.30;;;;;;;15.21;44.82;97740.68;1725887;83;21282;-68
2021/05/03 08:12:59;;;;;;;0.47;0.35;;;;;;;15.33;43.85;97724.06;1687827;85;21561;-69
2021/05/03 08:15:28;;;;;;;0.68;0.50;;;;;;;15.33;44.73;97755.45;1687577;85;21177;-69
2021/05/03 08:17:56;;;;;;;0.78;0.40;;;;;;;15.37;41.90;97748.88;1687997;85;21165;-69
2021/05/03 08:20:24;;;;;;;0.33;0.30;;;;;;;15.41;43.32;97734.45;1687683;85;21176;-69
2021/05/03 08:22:53;;;;;;;0.30;0.30;;;;;;;15.46;45.42;97739.16;1687860;85;21542;-68
2021/05/03 08:25:20;;;;;;;0.47;0.40;;;;;;;15.59;46.34;97742.01;1640795;87;21195;-69
2021/05/03 08:27:49;;;;;;;0.42;0.35;;;;;;;15.68;43.95;97740.42;1642479;87;21210;-69
2021/05/03 08:30:18;;;;;;;0.33;0.30;;;;;;;15.75;44.77;97737.09;1640872;86;21204;-69
2021/05/03 08:32:46;;;;;;;0.78;0.30;;;;;;;15.79;42.95;97739.18;1642408;87;21199;-69
2021/05/03 08:35:14;;;;;;;0.57;0.50;;;;;;;15.87;44.06;97748.26;1640867;87;21195;-67
2021/05/03 08:37:42;;;;;;;0.50;0.40;;;;;;;15.88;44.44;97747.73;1642154;87;21195;-67
2021/05/03 08:40:15;;;;;;;0.37;0.33;;;;;;;15.93;43.63;97741.46;1640919;86;21148;-68
2021/05/03 08:42:44;;;;;;;0.40;0.40;;;;;;;16.01;44.35;97734.83;1642198;87;21163;-67
2021/05/03 08:45:24;;;;;;;0.20;0.20;;;;;;;16.18;45.00;97734.95;1654959;87;21254;-67
2021/05/03 08:48:42;;;;;;;0.40;0.40;;;;;;;16.29;40.75;97755.44;1655449;87;21200;-69
2021/05/03 08:50:32;;;;;;;0.30;0.30;;;;;;;16.38;43.11;97741.20;1633915;85;21313;-68
2021/05/03 08:52:55;;;;;;;0.60;0.33;;;;;;;16.36;39.09;97746.33;1648874;85;21199;-69
2021/05/03 08:55:23;;;;;;;0.30;0.28;;;;;;;16.44;43.02;97747.05;1649940;85;21212;-67
2021/05/03 08:57:51;;;;;;;0.20;0.20;;;;;;;16.55;42.80;97743.12;1650116;85;21156;-65
2021/05/03 09:00:20;;;;;;;0.35;0.25;;;;;;;16.61;42.72;97737.18;1650089;85;21279;-65
2021/05/03 09:02:49;;;;;;;0.40;0.30;;;;;;;16.61;42.80;97745.83;1649981;85;21608;-66
2021/05/03 09:05:17;;;;;;;0.50;0.42;;;;;;;16.62;42.55;97737.47;1649858;85;21223;-65
2021/05/03 09:07:50;;;;;;;0.35;0.30;;;;;;;16.59;42.42;97743.91;1649994;85;21200;-67
2021/05/03 09:10:22;;;;;;;0.37;0.25;;;;;;;16.66;40.20;97748.40;1626423;85;21195;-67
2021/05/03 09:12:50;;;;;;;0.50;0.50;;;;;;;16.57;40.49;97748.52;1650122;85;21173;-67
2021/05/03 09:15:24;;;;;;;0.60;0.40;;;;;;;16.65;40.49;97752.04;1649880;85;21236;-69
2021/05/03 09:17:52;;;;;;;0.93;0.40;;;;;;;16.72;40.59;97745.86;1649969;85;21688;-69
2021/05/03 09:20:24;;;;;;;0.60;0.40;;;;;;;16.88;40.41;97736.44;1649998;85;21196;-69
2021/05/03 09:25:38;;;;;;;;;;;;;;;17.45;38.88;97733.67;1852864;77;22890;-68
2021/05/03 09:28:11;;;;;;;0.40;0.40;;;;;;;17.58;40.00;97737.42;1827604;77;20148;-68
2021/05/03 09:30:49;;;;;;;0.40;0.40;;;;;;;17.73;40.45;97740.75;1827981;77;21150;-67
2021/05/03 09:33:27;;;;;;;0.40;0.40;;;;;;;17.74;38.73;97739.76;1827371;77;21705;-69
2021/05/03 09:36:09;;;;;;;1.05;0.45;;;;;;;17.77;38.80;97733.61;1827735;77;21649;-69
2021/05/03 09:39:04;;;;;;;0.60;0.50;;;;;;;17.81;38.88;97752.42;1827800;77;21334;-69
2021/05/03 09:41:32;;;;;;;0.50;0.37;;;;;;;17.90;38.76;97735.48;1723349;83;21136;-69
2021/05/03 09:44:24;;;;;;;0.60;0.40;;;;;;;18.21;38.88;97729.25;1712384;84;21156;-69
2021/05/03 09:46:58;;;;;;;0.53;0.37;;;;;;;18.35;38.38;97741.46;1648848;86;21564;-69
2021/05/03 09:49:22;;;;;;;0.37;0.35;;;;;;;18.29;37.31;97731.72;1685313;85;21143;-69
2021/05/03 09:51:56;;;;;;;0.50;0.50;;;;;;;18.16;37.76;97740.06;1685199;85;21172;-69
2021/05/03 09:54:30;;;;;;;1.07;0.50;;;;;;;18.21;37.50;97740.30;1685092;85;21239;-69
2021/05/03 09:57:06;;;;;;;0.47;0.35;;;;;;;18.63;37.30;97739.25;1685330;85;21219;-67
2021/05/03 09:59:45;;;;;;;0.40;0.40;;;;;;;18.94;36.84;97739.52;1685063;85;21254;-66
2021/05/03 10:02:30;;;;;;;1.07;0.50;;;;;;;18.86;36.71;97737.88;1685131;85;21668;-67
2021/05/03 10:05:17;;;;;;;0.72;0.33;;;;;;;18.68;36.91;97746.02;1685140;85;21185;-67
2021/05/03 10:07:52;;;;;;;0.40;0.40;;;;;;;18.45;37.95;97744.52;1685337;85;21192;-66
2021/05/03 10:10:17;;;;;;;0.78;0.47;;;;;;;18.18;36.30;97757.25;1684228;85;21209;-67
2021/05/03 10:12:45;;;;;;;0.35;0.35;;;;;;;18.05;38.91;97748.52;1685227;85;21188;-69
2021/05/03 10:15:16;;;;;;;0.78;0.50;;;;;;;17.82;38.59;97758.77;1685158;85;21181;-68
2021/05/03 10:17:46;;;;;;;0.90;0.45;;;;;;;17.70;39.33;97762.16;1685454;85;21205;-69
2021/05/03 10:20:20;;;;;;;0.42;0.40;;;;;;;17.57;39.41;97769.43;1685185;85;21896;-69
2021/05/03 10:22:56;;;;;;;0.62;0.40;;;;;;;17.48;39.65;97766.59;1685227;85;21628;-69
2021/05/03 10:25:24;;;;;;;0.50;0.50;;;;;;;17.37;40.07;97759.25;1685308;85;21163;-69
2021/05/03 10:27:53;;;;;;;0.95;0.70;;;;;;;17.31;40.02;97764.77;1685161;85;21609;-69
2021/05/03 10:30:25;;;;;;;0.50;0.45;;;;;;;17.22;39.52;97766.39;1685465;85;21176;-69
2021/05/03 10:33:05;;;;;;;0.70;0.50;;;;;;;17.09;39.33;97765.27;1685429;85;21189;-68
2021/05/03 10:35:40;;;;;;;2.45;0.80;;;;;;;16.96;39.27;97762.52;1685072;85;21216;-68
2021/05/03 10:38:30;;;;;;;1.10;0.57;;;;;;;16.83;39.69;97770.77;1684708;85;21223;-65
2021/05/03 10:41:03;;;;;;;0.50;0.42;;;;;;;16.70;39.16;97760.95;1682047;85;21645;-66
2021/05/03 10:43:44;;;;;;;0.60;0.60;;;;;;;16.58;39.37;97770.30;1684830;85;21163;-65
2021/05/03 10:49:18;;;;;;;0.40;0.40;;;;;;;16.53;39.22;97762.16;1688111;85;21173;-67
2021/05/03 10:51:53;;;;;;;0.78;0.50;;;;;;;16.53;39.24;97764.30;1642703;87;21188;-66
2021/05/03 10:57:02;;;;;;;1.07;0.68;;;;;;;17.45;36.49;97749.42;1655873;87;21224;-65
2021/05/03 10:59:48;;;;;;;1.12;0.42;;;;;;;17.90;37.63;97753.37;1638210;87;21569;-65
2021/05/03 11:02:19;;;;;;;0.50;0.50;;;;;;;17.98;36.61;97749.27;1638154;87;21273;-65
2021/05/03 11:05:27;;;;;;;0.75;0.40;;;;;;;18.20;37.29;97744.74;1638182;87;21256;-66
2021/05/03 11:08:09;;;;;;;0.57;0.50;;;;;;;18.80;36.37;97744.43;1637929;87;21255;-68
2021/05/03 11:11:04;;;;;;;1.22;0.47;;;;;;;19.64;34.95;97739.42;1638305;87;21220;-66
2021/05/03 11:13:49;;;;;;;0.40;0.40;;;;;;;20.04;30.79;97740.16;1638400;87;21185;-65
2021/05/03 11:16:34;;;;;;;0.72;0.40;;;;;;;20.24;31.11;97733.77;1638149;87;21175;-66
2021/05/03 11:19:22;;;;;;;0.42;0.40;;;;;;;20.16;31.36;97732.69;1638373;87;21204;-66
2021/05/03 11:21:51;;;;;;;0.30;0.30;;;;;;;20.02;32.56;97735.58;1638292;87;21369;-66
2021/05/03 11:24:44;;;;;;;0.40;0.40;;;;;;;20.01;32.41;97739.22;1638074;87;21191;-66
2021/05/03 11:27:15;;;;;;;1.32;0.50;;;;;;;20.27;31.48;97733.34;1642744;87;21220;-69
2021/05/03 11:29:47;;;;;;;1.40;0.50;;;;;;;20.79;27.51;97730.98;1643163;87;21211;-70
2021/05/03 11:32:11;;;;;;;0.47;0.45;;;;;;;20.99;29.63;97736.13;1655811;87;21173;-69
2021/05/03 11:35:00;;;;;;;0.47;0.47;;;;;;;20.70;31.00;97728.28;1638090;87;21191;-69
2021/05/03 11:37:31;;;;;;;0.50;0.40;;;;;;;20.32;30.70;97728.29;1642561;87;21230;-69
2021/05/03 11:44:57;;;;;;;0.72;0.40;;;;;;;19.40;30.41;97727.17;1638366;87;21288;-69
2021/05/03 11:47:28;;;;;;;0.80;0.80;;;;;;;19.44;32.29;97710.48;1644361;87;21191;-69
2021/05/03 11:49:57;;;;;;;0.25;0.25;;;;;;;19.35;31.49;97720.38;1644493;87;21200;-69
2021/05/03 11:52:35;;;;;;;0.40;0.37;;;;;;;19.52;31.79;97717.36;1644298;87;21597;-70
2021/05/03 11:55:13;;;;;;;0.33;0.30;;;;;;;19.49;30.21;97728.31;1644302;87;21773;-69
2021/05/03 11:57:46;;;;;;;0.40;0.40;;;;;;;19.29;31.42;97734.88;1644380;87;21744;-70
2021/05/03 12:03:12;;;;;;;0.50;0.40;;;;;;;18.78;30.47;97722.79;1708461;82;21607;-66
2021/05/03 12:05:39;;;;;;;0.50;0.40;;;;;;;18.72;31.06;97727.52;1710149;82;21163;-66
2021/05/03 12:08:18;;;;;;;0.28;0.28;;;;;;;18.81;31.68;97718.44;1710045;82;21650;-65
2021/05/03 12:10:46;;;;;;;0.75;0.50;;;;;;;18.74;31.91;97724.20;1710036;82;21226;-66
2021/05/03 12:13:19;;;;;;;0.70;0.47;;;;;;;18.73;30.86;97719.44;1710162;82;21597;-66
2021/05/03 12:15:48;;;;;;;0.65;0.40;;;;;;;18.67;31.96;97721.56;1709924;82;21209;-66
2021/05/03 12:18:20;;;;;;;0.42;0.40;;;;;;;18.55;31.62;97727.09;1710025;82;21227;-67
2021/05/03 12:20:50;;;;;;;0.30;0.30;;;;;;;18.45;31.99;97730.56;1709874;82;21159;-66
2021/05/03 12:23:25;;;;;;;0.70;0.63;;;;;;;18.38;32.52;97725.79;1709842;82;21575;-66
2021/05/03 12:25:58;;;;;;;1.15;0.70;;;;;;;18.37;31.92;97721.03;1710084;82;21639;-68
2021/05/03 12:28:29;;;;;;;0.53;0.50;;;;;;;18.34;31.00;97728.50;1709722;82;21234;-69